createdAt,value
2018-10-18T00:00:54.528Z,11.97
2018-10-18T00:01:54.631Z,12.03
2018-10-18T00:03:04.072Z,12.06
2018-10-18T00:03:54.981Z,12.00
2018-10-18T00:04:55.221Z,12.13
2018-10-18T00:05:55.324Z,12.00
2018-10-18T00:06:55.504Z,12.04
2018-10-18T00:07:55.701Z,11.99
2018-10-18T00:08:55.793Z,12.10
2018-10-18T00:09:55.883Z,12.13
2018-10-18T00:10:56.014Z,12.10
2018-10-18T00:11:56.173Z,12.15
2018-10-18T00:12:56.281Z,12.17
2018-10-18T00:13:56.419Z,12.15
2018-10-18T00:14:56.514Z,12.22
2018-10-18T00:15:56.672Z,12.35
2018-10-18T00:16:56.788Z,12.35
2018-10-18T00:17:57.617Z,12.28
2018-10-18T00:18:57.011Z,12.28
2018-10-18T00:19:57.246Z,12.32
2018-10-18T00:20:57.376Z,12.35
2018-10-18T00:21:57.457Z,12.35
2018-10-18T00:22:57.716Z,12.32
2018-10-18T00:23:57.814Z,12.32
2018-10-18T00:24:57.919Z,12.25
2018-10-18T00:25:58.150Z,12.28
2018-10-18T00:26:58.196Z,12.28
2018-10-18T00:27:58.443Z,12.18
2018-10-18T00:28:58.526Z,12.22
2018-10-18T00:29:58.690Z,12.22
2018-10-18T00:30:58.813Z,12.20
2018-10-18T00:31:58.989Z,12.22
2018-10-18T00:32:59.065Z,12.20
2018-10-18T00:33:59.319Z,12.36
2018-10-18T00:34:59.431Z,12.35
2018-10-18T00:35:59.570Z,12.37
2018-10-18T00:36:59.616Z,12.35
2018-10-18T00:37:59.804Z,12.29
2018-10-18T00:38:59.854Z,12.29
2018-10-18T00:40:00.099Z,12.43
2018-10-18T00:41:00.238Z,12.39
2018-10-18T00:42:00.347Z,12.40
2018-10-18T00:43:00.511Z,12.39
2018-10-18T00:44:00.919Z,12.37
2018-10-18T00:45:00.875Z,12.36
2018-10-18T00:46:00.960Z,12.32
2018-10-18T00:47:01.162Z,12.36
2018-10-18T00:48:01.418Z,12.32
2018-10-18T00:49:01.567Z,12.29
2018-10-18T00:50:01.829Z,12.24
2018-10-18T00:51:01.997Z,12.22
2018-10-18T00:52:02.250Z,12.35
2018-10-18T00:53:02.328Z,12.31
2018-10-18T00:54:02.521Z,12.32
2018-10-18T00:55:02.663Z,12.21
2018-10-18T00:56:02.831Z,12.28
2018-10-18T00:57:02.896Z,12.31
2018-10-18T00:58:03.094Z,12.25
2018-10-18T00:59:03.177Z,12.31
2018-10-18T01:00:03.450Z,12.37
2018-10-18T01:01:03.504Z,12.32
2018-10-18T01:02:03.657Z,12.22
2018-10-18T01:03:03.816Z,12.36
2018-10-18T01:04:03.962Z,12.21
2018-10-18T01:05:04.044Z,12.15
2018-10-18T01:06:04.346Z,12.13
2018-10-18T01:07:04.406Z,12.13
2018-10-18T01:08:04.499Z,12.20
2018-10-18T01:09:04.687Z,12.04
2018-10-18T01:10:04.924Z,12.24
2018-10-18T01:11:05.134Z,12.13
2018-10-18T01:12:05.514Z,12.12
2018-10-18T01:13:05.509Z,12.12
2018-10-18T01:14:05.863Z,12.17
2018-10-18T01:15:05.941Z,12.18
2018-10-18T01:16:06.058Z,12.13
2018-10-18T01:17:06.208Z,12.20
2018-10-18T01:18:06.407Z,12.21
2018-10-18T01:19:06.445Z,12.20
2018-10-18T01:20:06.646Z,12.20
2018-10-18T01:21:06.740Z,12.13
2018-10-18T01:22:06.932Z,12.18
2018-10-18T01:23:07.091Z,12.18
2018-10-18T01:24:07.254Z,12.13
2018-10-18T01:25:07.285Z,12.21
2018-10-18T01:26:07.423Z,12.21
2018-10-18T01:27:07.607Z,12.28
2018-10-18T01:28:07.801Z,12.37
2018-10-18T01:29:08.023Z,12.29
2018-10-18T01:30:08.316Z,12.35
2018-10-18T01:31:08.351Z,12.31
2018-10-18T01:32:08.668Z,12.36
2018-10-18T01:33:08.753Z,12.32
2018-10-18T01:34:08.851Z,12.22
2018-10-18T01:35:09.008Z,12.22
2018-10-18T01:36:09.244Z,12.32
2018-10-18T01:37:09.249Z,12.21
2018-10-18T01:38:09.541Z,12.13
2018-10-18T01:39:09.663Z,12.22
2018-10-18T01:40:09.931Z,12.04
2018-10-18T01:41:10.090Z,12.13
2018-10-18T01:42:10.360Z,12.06
2018-10-18T01:43:10.302Z,12.13
2018-10-18T01:44:10.591Z,12.13
2018-10-18T01:45:10.633Z,12.22
2018-10-18T01:46:10.772Z,12.17
2018-10-18T01:47:10.922Z,12.12
2018-10-18T01:48:11.063Z,12.04
2018-10-18T01:49:11.127Z,12.17
2018-10-18T01:50:11.338Z,12.15
2018-10-18T01:51:11.348Z,12.09
2018-10-18T01:52:11.551Z,12.13
2018-10-18T01:53:11.766Z,12.09
2018-10-18T01:54:12.055Z,12.03
2018-10-18T01:55:12.020Z,12.20
2018-10-18T01:56:12.288Z,12.18
2018-10-18T01:57:15.318Z,12.21
2018-10-18T01:58:12.469Z,12.13
2018-10-18T01:59:12.580Z,12.17
2018-10-18T02:00:12.810Z,12.20
2018-10-18T02:01:12.895Z,12.13
2018-10-18T02:02:13.166Z,12.18
2018-10-18T02:03:13.258Z,12.15
2018-10-18T02:04:13.503Z,12.18
2018-10-18T02:05:13.589Z,12.24
2018-10-18T02:06:13.874Z,12.17
2018-10-18T02:07:13.944Z,12.18
2018-10-18T02:08:14.100Z,12.13
2018-10-18T02:09:14.129Z,12.20
2018-10-18T02:10:14.368Z,12.18
2018-10-18T02:11:14.494Z,12.13
2018-10-18T02:12:22.357Z,12.17
2018-10-18T02:13:23.433Z,12.21
2018-10-18T02:14:22.457Z,12.13
2018-10-18T02:15:18.119Z,12.15
2018-10-18T02:16:23.577Z,12.20
2018-10-18T02:17:15.651Z,12.25
2018-10-18T02:18:23.702Z,12.15
2018-10-18T02:19:16.161Z,12.20
2018-10-18T02:20:16.203Z,12.21
2018-10-18T02:21:16.396Z,12.21
2018-10-18T02:22:16.726Z,12.21
2018-10-18T02:23:16.835Z,12.18
2018-10-18T02:24:16.964Z,12.25
2018-10-18T02:25:17.280Z,12.21
2018-10-18T02:26:17.269Z,12.29
2018-10-18T02:27:17.427Z,12.35
2018-10-18T02:28:17.549Z,12.39
2018-10-18T02:29:17.694Z,12.32
2018-10-18T02:30:17.914Z,12.31
2018-10-18T02:31:17.980Z,12.22
2018-10-18T02:32:18.075Z,12.27
2018-10-18T02:33:18.207Z,12.32
2018-10-18T02:34:18.284Z,12.24
2018-10-18T02:35:18.523Z,12.17
2018-10-18T02:36:18.745Z,12.13
2018-10-18T02:37:18.761Z,12.07
2018-10-18T02:38:18.882Z,12.06
2018-10-18T02:39:18.982Z,12.15
2018-10-18T02:40:19.228Z,12.18
2018-10-18T02:41:19.302Z,12.17
2018-10-18T02:42:19.602Z,12.17
2018-10-18T02:43:19.740Z,12.15
2018-10-18T02:44:19.844Z,12.13
2018-10-18T02:45:20.053Z,12.07
2018-10-18T02:46:20.276Z,12.10
2018-10-18T02:47:20.402Z,11.99
2018-10-18T02:48:20.593Z,12.02
2018-10-18T02:49:20.746Z,12.07
2018-10-18T02:50:20.843Z,12.03
2018-10-18T02:51:20.940Z,12.06
2018-10-18T02:52:21.134Z,12.06
2018-10-18T02:53:21.352Z,12.03
2018-10-18T02:54:21.627Z,11.99
2018-10-18T02:55:21.682Z,11.97
2018-10-18T02:56:21.919Z,11.99
2018-10-18T02:57:22.058Z,12.03
2018-10-18T02:58:22.186Z,11.99
2018-10-18T02:59:23.092Z,11.90
2018-10-18T03:00:22.447Z,11.94
2018-10-18T03:01:22.555Z,12.00
2018-10-18T03:02:22.656Z,11.90
2018-10-18T03:03:22.764Z,11.86
2018-10-18T03:04:23.104Z,11.87
2018-10-18T03:05:23.073Z,11.86
2018-10-18T03:06:23.306Z,11.97
2018-10-18T03:07:23.380Z,11.91
2018-10-18T03:08:23.605Z,11.87
2018-10-18T03:09:23.828Z,11.88
2018-10-18T03:10:24.126Z,11.86
2018-10-18T03:11:24.248Z,11.90
2018-10-18T03:12:24.364Z,11.80
2018-10-18T03:13:24.498Z,11.77
2018-10-18T03:14:24.611Z,11.86
2018-10-18T03:15:24.697Z,11.86
2018-10-18T03:16:24.908Z,11.84
2018-10-18T03:17:25.148Z,11.81
2018-10-18T03:18:25.230Z,11.73
2018-10-18T03:19:25.436Z,11.80
2018-10-18T03:20:25.639Z,11.66
2018-10-18T03:21:25.877Z,11.68
2018-10-18T03:22:25.977Z,11.62
2018-10-18T03:23:26.235Z,11.70
2018-10-18T03:24:26.369Z,11.69
2018-10-18T03:25:26.447Z,11.70
2018-10-18T03:26:26.657Z,11.59
2018-10-18T03:27:26.932Z,11.60
2018-10-18T03:28:27.067Z,11.70
2018-10-18T03:29:27.149Z,11.62
2018-10-18T03:30:27.360Z,11.60
2018-10-18T03:31:27.587Z,11.70
2018-10-18T03:32:27.685Z,11.54
2018-10-18T03:33:27.791Z,11.55
2018-10-18T03:34:28.013Z,11.68
2018-10-18T03:35:28.143Z,11.62
2018-10-18T03:36:28.223Z,11.65
2018-10-18T03:37:28.455Z,11.68
2018-10-18T03:38:28.527Z,11.50
2018-10-18T03:39:28.763Z,11.54
2018-10-18T03:40:28.912Z,11.44
2018-10-18T03:41:29.056Z,11.55
2018-10-18T03:42:29.124Z,11.57
2018-10-18T03:43:29.394Z,11.60
2018-10-18T03:44:29.463Z,11.59
2018-10-18T03:45:29.717Z,11.63
2018-10-18T03:46:29.790Z,11.57
2018-10-18T03:47:29.985Z,11.59
2018-10-18T03:48:30.261Z,11.54
2018-10-18T03:49:30.355Z,11.68
2018-10-18T03:50:30.616Z,11.63
2018-10-18T03:51:30.714Z,11.63
2018-10-18T03:52:30.792Z,11.65
2018-10-18T03:53:30.996Z,11.63
2018-10-18T03:54:31.211Z,11.59
2018-10-18T03:55:31.450Z,11.59
2018-10-18T03:56:31.536Z,11.60
2018-10-18T03:57:31.751Z,11.59
2018-10-18T03:58:31.913Z,11.54
2018-10-18T03:59:32.004Z,11.60
2018-10-18T04:00:32.245Z,11.52
2018-10-18T04:01:32.352Z,11.59
2018-10-18T04:02:32.435Z,11.57
2018-10-18T04:03:32.643Z,11.59
2018-10-18T04:04:32.856Z,11.47
2018-10-18T04:05:33.053Z,11.48
2018-10-18T04:06:33.254Z,11.37
2018-10-18T04:07:33.475Z,11.33
2018-10-18T04:08:33.703Z,11.41
2018-10-18T04:09:33.819Z,11.41
2018-10-18T04:10:33.895Z,11.43
2018-10-18T04:11:34.122Z,11.45
2018-10-18T04:12:34.297Z,11.48
2018-10-18T04:13:34.360Z,11.47
2018-10-18T04:14:34.524Z,11.40
2018-10-18T04:15:34.606Z,11.37
2018-10-18T04:16:34.797Z,11.54
2018-10-18T04:17:35.007Z,11.52
2018-10-18T04:18:35.343Z,11.51
2018-10-18T04:19:35.349Z,11.45
2018-10-18T04:20:35.461Z,11.47
2018-10-18T04:21:37.436Z,11.47
2018-10-18T04:22:38.854Z,11.47
2018-10-18T04:23:37.784Z,11.48
2018-10-18T04:24:38.110Z,11.43
2018-10-18T04:25:38.318Z,11.44
2018-10-18T04:26:39.132Z,11.36
2018-10-18T04:27:45.547Z,11.36
2018-10-18T04:28:44.953Z,11.41
2018-10-18T04:29:37.997Z,11.32
2018-10-18T04:30:40.300Z,11.30
2018-10-18T04:31:38.927Z,11.32
2018-10-18T04:32:47.701Z,11.26
2018-10-18T04:33:46.094Z,11.27
2018-10-18T04:34:37.752Z,11.29
2018-10-18T04:35:39.118Z,11.36
2018-10-18T04:36:39.461Z,11.25
2018-10-18T04:37:40.269Z,11.26
2018-10-18T04:38:39.511Z,11.15
2018-10-18T04:39:39.569Z,11.26
2018-10-18T04:40:40.643Z,11.17
2018-10-18T04:41:40.347Z,11.22
2018-10-18T04:42:40.080Z,11.17
2018-10-18T04:43:40.291Z,11.19
2018-10-18T04:44:40.005Z,11.11
2018-10-18T04:45:40.239Z,11.12
2018-10-18T04:46:41.589Z,11.18
2018-10-18T04:47:41.065Z,10.99
2018-10-18T04:48:41.912Z,10.90
2018-10-18T04:49:41.379Z,10.92
2018-10-18T04:50:42.125Z,10.90
2018-10-18T04:51:42.386Z,10.96
2018-10-18T04:52:40.550Z,10.93
2018-10-18T04:53:42.444Z,10.93
2018-10-18T04:54:41.810Z,10.97
2018-10-18T04:55:41.376Z,10.92
2018-10-18T04:56:42.343Z,10.90
2018-10-18T04:57:41.840Z,11.04
2018-10-18T04:58:42.408Z,11.10
2018-10-18T04:59:42.898Z,11.07
2018-10-18T05:00:41.531Z,10.96
2018-10-18T05:01:41.738Z,11.04
2018-10-18T05:02:42.046Z,11.07
2018-10-18T05:03:42.045Z,10.99
2018-10-18T05:04:42.275Z,11.00
2018-10-18T05:05:42.953Z,10.90
2018-10-18T05:06:43.533Z,10.87
2018-10-18T05:07:42.675Z,10.87
2018-10-18T05:08:42.941Z,10.92
2018-10-18T05:09:43.361Z,10.92
2018-10-18T05:10:46.011Z,10.89
2018-10-18T05:11:43.403Z,10.92
2018-10-18T05:12:43.560Z,10.86
2018-10-18T05:13:43.704Z,10.87
2018-10-18T05:14:43.841Z,10.87
2018-10-18T05:15:43.917Z,10.81
2018-10-18T05:16:44.152Z,10.93
2018-10-18T05:17:44.313Z,10.82
2018-10-18T05:18:44.379Z,10.82
2018-10-18T05:19:44.473Z,10.84
2018-10-18T05:20:44.720Z,10.86
2018-10-18T05:21:44.799Z,10.75
2018-10-18T05:22:44.941Z,10.79
2018-10-18T05:23:45.061Z,10.87
2018-10-18T05:24:45.218Z,10.87
2018-10-18T05:25:45.324Z,10.92
2018-10-18T05:26:45.406Z,10.90
2018-10-18T05:27:45.673Z,10.90
2018-10-18T05:28:45.891Z,10.87
2018-10-18T05:29:45.844Z,10.92
2018-10-18T05:30:49.109Z,10.94
2018-10-18T05:31:46.380Z,10.97
2018-10-18T05:32:46.361Z,10.94
2018-10-18T05:33:46.486Z,10.89
2018-10-18T05:34:48.561Z,10.92
2018-10-18T05:35:50.094Z,10.96
2018-10-18T05:36:49.200Z,10.94
2018-10-18T05:37:48.855Z,10.93
2018-10-18T05:38:51.182Z,10.92
2018-10-18T05:39:48.876Z,10.87
2018-10-18T05:40:49.600Z,11.02
2018-10-18T05:41:51.571Z,10.99
2018-10-18T05:42:51.766Z,10.97
2018-10-18T05:43:50.856Z,10.92
2018-10-18T05:44:50.676Z,11.02
2018-10-18T05:45:50.738Z,10.93
2018-10-18T05:46:52.682Z,10.97
2018-10-18T05:47:52.542Z,10.99
2018-10-18T05:48:53.148Z,10.97
2018-10-18T05:49:51.354Z,11.05
2018-10-18T05:50:52.239Z,10.90
2018-10-18T05:51:53.669Z,10.81
2018-10-18T05:52:53.278Z,10.87
2018-10-18T05:53:52.098Z,10.82
2018-10-18T05:54:51.822Z,10.90
2018-10-18T05:55:51.786Z,10.94
2018-10-18T05:56:51.231Z,10.92
2018-10-18T05:57:53.187Z,10.94
2018-10-18T05:58:52.340Z,10.82
2018-10-18T05:59:52.876Z,10.89
2018-10-18T06:00:53.039Z,10.84
2018-10-18T06:01:53.693Z,10.87
2018-10-18T06:02:54.353Z,10.86
2018-10-18T06:03:55.144Z,10.94
2018-10-18T06:04:53.589Z,10.89
2018-10-18T06:05:53.253Z,10.89
2018-10-18T06:06:51.722Z,10.92
2018-10-18T06:07:54.412Z,10.84
2018-10-18T06:08:54.286Z,10.90
2018-10-18T06:09:53.492Z,10.93
2018-10-18T06:10:52.103Z,10.81
2018-10-18T06:11:52.068Z,10.97
2018-10-18T06:12:52.401Z,11.00
2018-10-18T06:13:52.484Z,10.92
2018-10-18T06:14:52.718Z,10.86
2018-10-18T06:15:52.834Z,10.90
2018-10-18T06:16:52.962Z,10.93
2018-10-18T06:17:53.069Z,10.89
2018-10-18T06:18:53.144Z,10.90
2018-10-18T06:19:53.412Z,10.90
2018-10-18T06:20:53.675Z,10.97
2018-10-18T06:21:53.672Z,10.96
2018-10-18T06:22:54.014Z,10.93
2018-10-18T06:23:54.305Z,10.92
2018-10-18T06:24:58.370Z,11.05
2018-10-18T06:25:59.100Z,11.05
2018-10-18T06:26:58.346Z,11.10
2018-10-18T06:27:57.718Z,11.12
2018-10-18T06:28:55.000Z,11.12
2018-10-18T06:29:55.033Z,11.18
2018-10-18T06:30:55.283Z,11.05
2018-10-18T06:31:55.453Z,11.07
2018-10-18T06:32:55.612Z,11.10
2018-10-18T06:33:55.646Z,11.15
2018-10-18T06:34:55.774Z,11.22
2018-10-18T06:35:56.007Z,11.14
2018-10-18T06:36:56.144Z,11.18
2018-10-18T06:37:56.313Z,11.17
2018-10-18T06:38:56.436Z,11.17
2018-10-18T06:39:56.627Z,11.25
2018-10-18T06:40:56.697Z,11.29
2018-10-18T06:41:56.955Z,11.30
2018-10-18T06:42:57.083Z,11.23
2018-10-18T06:43:57.176Z,11.23
2018-10-18T06:44:57.339Z,11.23
2018-10-18T06:45:57.467Z,11.26
2018-10-18T06:46:57.682Z,11.23
2018-10-18T06:47:57.986Z,11.22
2018-10-18T06:48:57.843Z,11.25
2018-10-18T06:49:57.908Z,11.17
2018-10-18T06:50:58.143Z,11.30
2018-10-18T06:51:58.278Z,11.26
2018-10-18T06:52:58.388Z,11.32
2018-10-18T06:53:58.491Z,11.40
2018-10-18T06:54:58.687Z,11.41
2018-10-18T06:55:58.897Z,11.40
2018-10-18T06:56:58.999Z,11.51
2018-10-18T06:57:59.125Z,11.55
2018-10-18T06:58:59.224Z,11.50
2018-10-18T06:59:59.526Z,11.55
2018-10-18T07:00:59.649Z,11.59
2018-10-18T07:01:59.802Z,11.59
2018-10-18T07:02:59.900Z,11.59
2018-10-18T07:04:00.106Z,11.63
2018-10-18T07:05:00.270Z,11.62
2018-10-18T07:06:00.363Z,11.73
2018-10-18T07:07:00.602Z,11.80
2018-10-18T07:08:00.680Z,11.73
2018-10-18T07:09:00.970Z,11.69
2018-10-18T07:10:01.780Z,11.87
2018-10-18T07:11:01.075Z,11.77
2018-10-18T07:12:01.157Z,11.90
2018-10-18T07:13:01.308Z,11.90
2018-10-18T07:14:01.505Z,11.87
2018-10-18T07:15:01.620Z,11.91
2018-10-18T07:16:01.738Z,12.00
2018-10-18T07:17:01.954Z,11.94
2018-10-18T07:18:02.119Z,11.97
2018-10-18T07:19:02.176Z,11.94
2018-10-18T07:20:02.322Z,11.94
2018-10-18T07:21:02.393Z,12.10
2018-10-18T07:22:02.615Z,12.07
2018-10-18T07:23:02.848Z,12.12
2018-10-18T07:24:03.039Z,12.18
2018-10-18T07:25:03.054Z,12.21
2018-10-18T07:26:03.258Z,12.20
2018-10-18T07:27:03.501Z,12.28
2018-10-18T07:28:03.599Z,12.31
2018-10-18T07:29:03.678Z,12.39
2018-10-18T07:30:03.903Z,12.32
2018-10-18T07:31:04.130Z,12.49
2018-10-18T07:32:04.215Z,12.46
2018-10-18T07:33:04.435Z,12.47
2018-10-18T07:34:04.548Z,12.57
2018-10-18T07:35:04.778Z,12.47
2018-10-18T07:36:04.775Z,12.50
2018-10-18T07:37:04.995Z,12.46
2018-10-18T07:38:05.227Z,12.64
2018-10-18T07:39:05.317Z,12.57
2018-10-18T07:40:05.532Z,12.65
2018-10-18T07:41:05.794Z,12.57
2018-10-18T07:42:05.987Z,12.64
2018-10-18T07:43:06.020Z,12.39
2018-10-18T07:44:06.097Z,12.58
2018-10-18T07:45:06.299Z,12.64
2018-10-18T07:46:06.491Z,12.70
2018-10-18T07:47:06.778Z,12.73
2018-10-18T07:48:06.915Z,12.83
2018-10-18T07:49:07.108Z,12.85
2018-10-18T07:50:07.257Z,12.90
2018-10-18T07:51:07.374Z,13.00
2018-10-18T07:52:07.488Z,13.05
2018-10-18T07:53:07.673Z,13.05
2018-10-18T07:54:07.995Z,13.08
2018-10-18T07:55:07.893Z,13.08
2018-10-18T07:56:08.130Z,13.00
2018-10-18T07:57:08.217Z,13.00
2018-10-18T07:58:08.352Z,13.03
2018-10-18T07:59:08.437Z,13.03
2018-10-18T08:00:12.375Z,13.04
2018-10-18T08:01:10.433Z,13.08
2018-10-18T08:02:08.986Z,13.08
2018-10-18T08:03:09.284Z,13.04
2018-10-18T08:04:09.314Z,13.15
2018-10-18T08:05:09.401Z,13.19
2018-10-18T08:06:09.492Z,13.12
2018-10-18T08:07:09.826Z,13.19
2018-10-18T08:08:09.931Z,13.16
2018-10-18T08:09:10.187Z,13.19
2018-10-18T08:10:10.221Z,13.30
2018-10-18T08:11:10.515Z,13.19
2018-10-18T08:12:10.661Z,13.33
2018-10-18T08:13:10.765Z,13.25
2018-10-18T08:14:10.952Z,13.27
2018-10-18T08:15:12.981Z,13.16
2018-10-18T08:16:13.762Z,13.25
2018-10-18T08:17:13.279Z,13.30
2018-10-18T08:18:14.493Z,13.33
2018-10-18T08:19:12.779Z,13.25
2018-10-18T08:20:14.546Z,13.16
2018-10-18T08:21:13.279Z,13.16
2018-10-18T08:22:13.678Z,13.35
2018-10-18T08:23:15.689Z,13.41
2018-10-18T08:24:14.810Z,13.30
2018-10-18T08:25:15.173Z,13.30
2018-10-18T08:26:13.897Z,13.20
2018-10-18T08:27:15.201Z,13.35
2018-10-18T08:28:15.387Z,13.46
2018-10-18T08:29:16.422Z,13.50
2018-10-18T08:30:15.524Z,13.47
2018-10-18T08:31:15.838Z,13.47
2018-10-18T08:32:17.069Z,13.49
2018-10-18T08:33:15.699Z,13.57
2018-10-18T08:34:18.600Z,13.38
2018-10-18T08:35:16.309Z,13.33
2018-10-18T08:36:15.937Z,13.46
2018-10-18T08:37:19.571Z,13.50
2018-10-18T08:38:16.733Z,13.65
2018-10-18T08:39:17.379Z,13.67
2018-10-18T08:40:18.762Z,13.67
2018-10-18T08:41:18.820Z,13.72
2018-10-18T08:42:19.534Z,13.83
2018-10-18T08:43:18.224Z,13.87
2018-10-18T08:44:18.158Z,13.85
2018-10-18T08:45:18.932Z,13.85
2018-10-18T08:46:19.520Z,13.89
2018-10-18T08:47:18.461Z,13.97
2018-10-18T08:48:17.714Z,13.99
2018-10-18T08:49:17.154Z,14.07
2018-10-18T08:50:17.217Z,14.05
2018-10-18T08:51:17.270Z,14.10
2018-10-18T08:52:20.523Z,14.32
2018-10-18T08:53:20.441Z,14.45
2018-10-18T08:54:17.518Z,14.50
2018-10-18T08:55:17.830Z,14.62
2018-10-18T08:56:18.002Z,14.65
2018-10-18T08:57:18.252Z,14.73
2018-10-18T08:58:18.168Z,14.85
2018-10-18T08:59:18.388Z,14.92
2018-10-18T09:00:18.452Z,15.22
2018-10-18T09:01:18.658Z,15.39
2018-10-18T09:02:19.876Z,15.61
2018-10-18T09:03:18.869Z,15.88
2018-10-18T09:04:19.134Z,16.13
2018-10-18T09:05:19.418Z,16.28
2018-10-18T09:06:19.963Z,16.46
2018-10-18T09:07:19.428Z,16.65
2018-10-18T09:08:19.656Z,17.01
2018-10-18T09:09:19.966Z,17.44
2018-10-18T09:10:19.878Z,17.86
2018-10-18T09:11:19.978Z,18.25
2018-10-18T09:12:20.211Z,18.56
2018-10-18T09:13:20.319Z,18.77
2018-10-18T09:14:20.393Z,19.07
2018-10-18T09:15:20.611Z,19.19
2018-10-18T09:16:20.704Z,19.55
2018-10-18T09:17:20.949Z,19.82
2018-10-18T09:18:21.084Z,20.02
2018-10-18T09:19:21.188Z,20.16
2018-10-18T09:20:21.837Z,20.51
2018-10-18T09:21:22.749Z,20.48
2018-10-18T09:22:21.626Z,20.63
2018-10-18T09:23:21.708Z,20.84
2018-10-18T09:24:21.842Z,21.05
2018-10-18T09:25:21.957Z,21.36
2018-10-18T09:26:22.015Z,21.60
2018-10-18T09:27:22.244Z,21.61
2018-10-18T09:28:22.496Z,21.64
2018-10-18T09:29:22.654Z,21.91
2018-10-18T09:30:22.818Z,21.99
2018-10-18T09:31:23.026Z,22.13
2018-10-18T09:32:23.352Z,22.25
2018-10-18T09:33:23.331Z,22.20
2018-10-18T09:34:23.974Z,22.36
2018-10-18T09:35:23.737Z,22.62
2018-10-18T09:36:23.868Z,22.70
2018-10-18T09:37:24.054Z,22.85
2018-10-18T09:38:25.005Z,23.05
2018-10-18T09:39:24.437Z,23.02
2018-10-18T09:40:24.732Z,23.03
2018-10-18T09:41:24.786Z,22.87
2018-10-18T09:42:25.508Z,22.91
2018-10-18T09:43:25.015Z,22.87
2018-10-18T09:44:26.686Z,22.70
2018-10-18T09:45:25.272Z,22.85
2018-10-18T09:46:25.517Z,22.88
2018-10-18T09:47:25.666Z,22.93
2018-10-18T09:48:25.731Z,22.96
2018-10-18T09:49:26.011Z,22.98
2018-10-18T09:50:26.128Z,23.10
2018-10-18T09:51:26.295Z,22.98
2018-10-18T09:52:26.552Z,22.90
2018-10-18T09:53:26.631Z,22.88
2018-10-18T09:54:26.855Z,22.93
2018-10-18T09:55:27.093Z,22.87
2018-10-18T09:56:27.182Z,22.84
2018-10-18T09:57:27.446Z,22.90
2018-10-18T09:58:27.691Z,22.85
2018-10-18T09:59:27.703Z,22.91
2018-10-18T10:00:27.799Z,22.88
2018-10-18T10:01:28.111Z,22.75
2018-10-18T10:02:28.231Z,22.75
2018-10-18T10:03:28.309Z,22.83
2018-10-18T10:04:28.645Z,22.94
2018-10-18T10:05:28.798Z,23.03
2018-10-18T10:06:28.892Z,23.00
2018-10-18T10:07:28.986Z,23.15
2018-10-18T10:08:29.204Z,23.23
2018-10-18T10:09:29.395Z,23.28
2018-10-18T10:10:29.571Z,23.43
2018-10-18T10:11:29.748Z,23.55
2018-10-18T10:12:29.836Z,23.81
2018-10-18T10:13:30.230Z,23.96
2018-10-18T10:14:30.235Z,23.91
2018-10-18T10:15:30.443Z,24.16
2018-10-18T10:16:30.760Z,24.38
2018-10-18T10:17:30.890Z,24.58
2018-10-18T10:18:30.966Z,24.78
2018-10-18T10:19:31.076Z,24.93
2018-10-18T10:20:31.313Z,25.01
2018-10-18T10:21:31.497Z,25.23
2018-10-18T10:22:31.679Z,25.38
2018-10-18T10:23:31.783Z,25.38
2018-10-18T10:24:31.937Z,25.51
2018-10-18T10:25:32.063Z,25.55
2018-10-18T10:26:32.166Z,25.38
2018-10-18T10:27:32.339Z,25.53
2018-10-18T10:28:32.431Z,25.54
2018-10-18T10:29:32.573Z,25.59
2018-10-18T10:30:32.849Z,25.38
2018-10-18T10:31:33.066Z,25.06
2018-10-18T10:32:33.026Z,24.92
2018-10-18T10:33:33.283Z,24.76
2018-10-18T10:34:33.534Z,24.66
2018-10-18T10:35:33.807Z,24.60
2018-10-18T10:36:33.822Z,24.45
2018-10-18T10:37:34.164Z,24.08
2018-10-18T10:38:34.294Z,23.98
2018-10-18T10:39:34.513Z,23.92
2018-10-18T10:40:34.680Z,24.01
2018-10-18T10:41:34.915Z,23.91
2018-10-18T10:42:34.997Z,24.01
2018-10-18T10:43:35.090Z,24.03
2018-10-18T10:44:35.184Z,23.91
2018-10-18T10:45:35.626Z,23.95
2018-10-18T10:46:35.552Z,23.78
2018-10-18T10:47:35.673Z,23.61
2018-10-18T10:48:35.748Z,23.36
2018-10-18T10:49:35.951Z,23.08
2018-10-18T10:50:36.172Z,22.73
2018-10-18T10:51:36.511Z,22.59
2018-10-18T10:52:36.611Z,22.30
2018-10-18T10:53:36.953Z,21.95
2018-10-18T10:54:36.971Z,21.85
2018-10-18T10:55:37.094Z,21.72
2018-10-18T10:56:37.275Z,21.45
2018-10-18T10:57:37.388Z,21.29
2018-10-18T10:58:37.509Z,21.22
2018-10-18T10:59:37.574Z,21.20
2018-10-18T11:00:37.821Z,21.09
2018-10-18T11:01:37.919Z,20.97
2018-10-18T11:02:38.049Z,20.96
2018-10-18T11:03:38.179Z,20.93
2018-10-18T11:04:38.422Z,20.90
2018-10-18T11:05:38.498Z,20.77
2018-10-18T11:06:38.694Z,20.77
2018-10-18T11:07:38.891Z,20.60
2018-10-18T11:08:39.107Z,20.62
2018-10-18T11:09:39.326Z,20.63
2018-10-18T11:10:39.511Z,20.50
2018-10-18T11:11:39.731Z,20.51
2018-10-18T11:12:39.846Z,20.43
2018-10-18T11:13:42.913Z,20.44
2018-10-18T11:14:40.229Z,20.41
2018-10-18T11:15:40.938Z,20.40
2018-10-18T11:16:41.229Z,20.37
2018-10-18T11:17:41.250Z,20.32
2018-10-18T11:18:40.858Z,20.26
2018-10-18T11:19:41.193Z,20.28
2018-10-18T11:20:42.062Z,20.26
2018-10-18T11:21:42.190Z,20.21
2018-10-18T11:22:42.695Z,20.16
2018-10-18T11:23:42.429Z,20.18
2018-10-18T11:24:42.108Z,20.18
2018-10-18T11:25:42.993Z,20.13
2018-10-18T11:26:42.981Z,20.18
2018-10-18T11:27:43.421Z,20.21
2018-10-18T11:28:43.478Z,20.18
2018-10-18T11:29:44.326Z,20.16
2018-10-18T11:30:43.385Z,20.09
2018-10-18T11:31:43.542Z,20.16
2018-10-18T11:32:44.007Z,20.22
2018-10-18T11:33:43.535Z,20.07
2018-10-18T11:34:44.507Z,20.07
2018-10-18T11:35:44.591Z,20.10
2018-10-18T11:36:46.638Z,19.95
2018-10-18T11:37:46.035Z,19.91
2018-10-18T11:38:45.048Z,19.88
2018-10-18T11:39:45.003Z,19.85
2018-10-18T11:40:45.583Z,19.88
2018-10-18T11:41:46.443Z,19.94
2018-10-18T11:42:46.681Z,19.89
2018-10-18T11:43:45.965Z,19.91
2018-10-18T11:44:47.903Z,19.92
2018-10-18T11:45:46.127Z,19.95
2018-10-18T11:46:46.711Z,19.88
2018-10-18T11:47:47.047Z,19.92
2018-10-18T11:48:46.435Z,19.91
2018-10-18T11:49:46.725Z,19.88
2018-10-18T11:50:46.638Z,19.91
2018-10-18T11:51:47.274Z,19.82
2018-10-18T11:52:47.345Z,19.81
2018-10-18T11:53:46.515Z,19.76
2018-10-18T11:54:46.631Z,19.79
2018-10-18T11:55:46.716Z,19.73
2018-10-18T11:56:46.928Z,19.66
2018-10-18T11:57:46.989Z,19.73
2018-10-18T11:58:47.090Z,19.79
2018-10-18T11:59:47.313Z,19.74
2018-10-18T12:00:47.532Z,19.85
2018-10-18T12:01:47.621Z,19.73
2018-10-18T12:02:47.975Z,19.77
2018-10-18T12:03:47.943Z,19.79
2018-10-18T12:04:48.183Z,19.77
2018-10-18T12:05:48.265Z,19.74
2018-10-18T12:06:48.377Z,19.79
2018-10-18T12:07:48.619Z,19.84
2018-10-18T12:08:48.687Z,19.84
2018-10-18T12:09:48.884Z,19.86
2018-10-18T12:10:49.107Z,19.84
2018-10-18T12:11:49.195Z,19.79
2018-10-18T12:12:49.416Z,19.81
2018-10-18T12:13:49.611Z,19.92
2018-10-18T12:14:49.864Z,19.91
2018-10-18T12:15:49.951Z,20.02
2018-10-18T12:16:50.166Z,20.07
2018-10-18T12:17:50.360Z,20.07
2018-10-18T12:18:50.610Z,20.00
2018-10-18T12:19:51.297Z,20.00
2018-10-18T12:20:50.868Z,20.10
2018-10-18T12:21:52.265Z,20.21
2018-10-18T12:22:51.687Z,20.16
2018-10-18T12:23:53.580Z,20.22
2018-10-18T12:24:51.710Z,20.18
2018-10-18T12:25:52.933Z,20.26
2018-10-18T12:26:52.076Z,20.16
2018-10-18T12:27:54.151Z,20.18
2018-10-18T12:28:52.468Z,20.16
2018-10-18T12:29:54.426Z,20.18
2018-10-18T12:30:54.420Z,20.21
2018-10-18T12:31:54.251Z,20.21
2018-10-18T12:32:54.292Z,20.22
2018-10-18T12:33:54.148Z,20.31
2018-10-18T12:34:54.500Z,20.34
2018-10-18T12:35:53.441Z,20.36
2018-10-18T12:36:53.551Z,20.34
2018-10-18T12:37:53.697Z,20.26
2018-10-18T12:38:53.862Z,20.39
2018-10-18T12:39:53.981Z,20.44
2018-10-18T12:40:54.134Z,20.47
2018-10-18T12:41:55.304Z,20.36
2018-10-18T12:42:54.414Z,20.47
2018-10-18T12:43:54.602Z,20.41
2018-10-18T12:44:54.909Z,20.47
2018-10-18T12:45:55.042Z,20.39
2018-10-18T12:46:54.993Z,20.34
2018-10-18T12:47:55.160Z,20.47
2018-10-18T12:48:55.340Z,20.40
2018-10-18T12:49:55.620Z,20.44
2018-10-18T12:50:55.708Z,20.51
2018-10-18T12:51:55.703Z,20.66
2018-10-18T12:52:57.777Z,20.72
2018-10-18T12:53:58.044Z,20.77
2018-10-18T12:54:57.180Z,20.80